sensor_id;sensor_type;location;lat;lon;timestamp;pressure;altitude;pressure_sealevel;temperature;humidity
550;BME280;20066;48.764;9.176;2023-05-11T00:00:14;98005.19;;;15.54;60.79
550;BME280;20066;48.764;9.176;2023-05-11T00:02:42;98010.75;;;15.47;61.36
550;BME280;20066;48.764;9.176;2023-05-11T00:05:12;98009.72;;;15.40;61.12
550;BME280;20066;48.764;9.176;2023-05-11T00:07:40;98003.69;;;15.53;61.06
550;BME280;20066;48.764;9.176;2023-05-11T00:10:08;97995.81;;;15.58;61.80
550;BME280;20066;48.764;9.176;2023-05-11T00:12:38;97999.63;;;15.61;60.21
550;BME280;20066;48.764;9.176;2023-05-11T00:15:07;97995.06;;;15.74;60.52
550;BME280;20066;48.764;9.176;2023-05-11T00:17:35;97990.50;;;15.87;60.42
550;BME280;20066;48.764;9.176;2023-05-11T00:20:03;97995.50;;;16.05;58.76
550;BME280;20066;48.764;9.176;2023-05-11T00:22:31;97993.44;;;15.60;60.43
550;BME280;20066;48.764;9.176;2023-05-11T00:24:58;97995.66;;;15.81;59.89
550;BME280;20066;48.764;9.176;2023-05-11T00:27:26;97998.25;;;15.69;60.19
550;BME280;20066;48.764;9.176;2023-05-11T00:29:55;97995.47;;;15.72;59.83
550;BME280;20066;48.764;9.176;2023-05-11T00:32:23;97988.88;;;15.90;59.16
550;BME280;20066;48.764;9.176;2023-05-11T00:34:51;97997.19;;;15.83;59.63
550;BME280;20066;48.764;9.176;2023-05-11T00:37:18;97988.22;;;15.33;61.74
550;BME280;20066;48.764;9.176;2023-05-11T00:39:46;97985.69;;;14.63;61.68
550;BME280;20066;48.764;9.176;2023-05-11T00:42:14;97985.34;;;15.40;60.29
550;BME280;20066;48.764;9.176;2023-05-11T00:44:42;97982.28;;;15.74;59.48
550;BME280;20066;48.764;9.176;2023-05-11T00:47:11;97991.06;;;15.62;59.26
550;BME280;20066;48.764;9.176;2023-05-11T00:49:40;97988.34;;;15.26;59.73
550;BME280;20066;48.764;9.176;2023-05-11T00:52:07;97983.84;;;15.20;59.71
550;BME280;20066;48.764;9.176;2023-05-11T00:54:35;97993.06;;;15.42;60.16
550;BME280;20066;48.764;9.176;2023-05-11T00:57:03;97990.97;;;14.71;61.55
550;BME280;20066;48.764;9.176;2023-05-11T00:59:31;97986.75;;;14.89;60.82
550;BME280;20066;48.764;9.176;2023-05-11T01:01:59;97987.84;;;15.31;61.23
550;BME280;20066;48.764;9.176;2023-05-11T01:04:28;97990.19;;;15.13;60.66
550;BME280;20066;48.764;9.176;2023-05-11T01:07:04;97989.59;;;14.82;63.42
550;BME280;20066;48.764;9.176;2023-05-11T01:09:50;97985.91;;;15.32;62.04
550;BME280;20066;48.764;9.176;2023-05-11T01:12:28;97987.13;;;15.47;60.85
550;BME280;20066;48.764;9.176;2023-05-11T01:15:01;97994.09;;;15.09;61.11
550;BME280;20066;48.764;9.176;2023-05-11T01:17:42;97990.09;;;15.17;61.55
550;BME280;20066;48.764;9.176;2023-05-11T01:20:16;97988.91;;;15.37;61.36
550;BME280;20066;48.764;9.176;2023-05-11T01:23:03;97985.47;;;15.53;60.97
550;BME280;20066;48.764;9.176;2023-05-11T01:25:52;97988.63;;;15.32;61.67
550;BME280;20066;48.764;9.176;2023-05-11T01:28:33;97989.72;;;15.70;60.10
550;BME280;20066;48.764;9.176;2023-05-11T01:31:12;97988.28;;;15.82;60.32
550;BME280;20066;48.764;9.176;2023-05-11T01:33:48;97986.72;;;15.49;60.97
550;BME280;20066;48.764;9.176;2023-05-11T01:36:18;97989.38;;;15.85;60.02
550;BME280;20066;48.764;9.176;2023-05-11T01:38:47;97979.28;;;15.85;59.50
550;BME280;20066;48.764;9.176;2023-05-11T01:41:17;97985.16;;;15.67;59.44
550;BME280;20066;48.764;9.176;2023-05-11T01:43:54;97983.91;;;14.96;60.86
550;BME280;20066;48.764;9.176;2023-05-11T01:46:26;97990.56;;;15.31;59.98
550;BME280;20066;48.764;9.176;2023-05-11T01:48:57;97987.69;;;15.38;60.04
550;BME280;20066;48.764;9.176;2023-05-11T01:51:27;97982.16;;;14.86;61.09
550;BME280;20066;48.764;9.176;2023-05-11T01:53:58;97977.47;;;15.46;59.59
550;BME280;20066;48.764;9.176;2023-05-11T01:56:27;97972.03;;;15.30;60.39
550;BME280;20066;48.764;9.176;2023-05-11T01:58:56;97985.63;;;14.87;60.79
550;BME280;20066;48.764;9.176;2023-05-11T02:01:28;97983.00;;;15.59;58.72
550;BME280;20066;48.764;9.176;2023-05-11T02:03:56;97981.56;;;15.70;58.78
550;BME280;20066;48.764;9.176;2023-05-11T02:06:25;97973.28;;;15.94;58.48
550;BME280;20066;48.764;9.176;2023-05-11T02:08:56;97978.47;;;16.04;58.13
550;BME280;20066;48.764;9.176;2023-05-11T02:11:27;97984.66;;;16.05;58.14
550;BME280;20066;48.764;9.176;2023-05-11T02:13:56;97985.91;;;15.68;58.78
550;BME280;20066;48.764;9.176;2023-05-11T02:16:26;97988.88;;;15.73;59.78
550;BME280;20066;48.764;9.176;2023-05-11T02:18:56;97992.19;;;15.97;58.46
550;BME280;20066;48.764;9.176;2023-05-11T02:21:25;97983.19;;;15.68;58.18
550;BME280;20066;48.764;9.176;2023-05-11T02:23:54;97991.84;;;15.95;57.90
550;BME280;20066;48.764;9.176;2023-05-11T02:26:23;97993.41;;;16.12;57.41
550;BME280;20066;48.764;9.176;2023-05-11T02:28:51;97988.63;;;16.00;57.64
550;BME280;20066;48.764;9.176;2023-05-11T02:31:22;97991.34;;;15.84;58.55
550;BME280;20066;48.764;9.176;2023-05-11T02:33:55;97990.03;;;15.20;60.39
550;BME280;20066;48.764;9.176;2023-05-11T02:36:27;97985.59;;;15.46;60.19
550;BME280;20066;48.764;9.176;2023-05-11T02:39:02;97983.94;;;15.52;60.61
550;BME280;20066;48.764;9.176;2023-05-11T02:41:30;97985.75;;;15.39;61.02
550;BME280;20066;48.764;9.176;2023-05-11T02:44:02;97981.31;;;15.65;60.06
550;BME280;20066;48.764;9.176;2023-05-11T02:46:32;97985.47;;;15.86;58.79
550;BME280;20066;48.764;9.176;2023-05-11T02:49:06;97984.81;;;15.81;59.22
550;BME280;20066;48.764;9.176;2023-05-11T02:51:35;97991.50;;;15.93;58.87
550;BME280;20066;48.764;9.176;2023-05-11T02:54:05;97990.25;;;15.81;59.71
550;BME280;20066;48.764;9.176;2023-05-11T02:56:35;97987.34;;;15.72;59.78
550;BME280;20066;48.764;9.176;2023-05-11T02:59:03;97988.19;;;16.02;59.18
550;BME280;20066;48.764;9.176;2023-05-11T03:01:32;97991.72;;;16.18;58.60
550;BME280;20066;48.764;9.176;2023-05-11T03:04:04;97980.00;;;16.05;58.81
550;BME280;20066;48.764;9.176;2023-05-11T03:06:32;97980.94;;;16.15;58.42
550;BME280;20066;48.764;9.176;2023-05-11T03:09:00;97985.59;;;15.98;58.71
550;BME280;20066;48.764;9.176;2023-05-11T03:11:28;97978.69;;;15.94;59.61
550;BME280;20066;48.764;9.176;2023-05-11T03:13:57;97976.59;;;16.01;59.36
550;BME280;20066;48.764;9.176;2023-05-11T03:16:25;97974.81;;;15.78;60.01
550;BME280;20066;48.764;9.176;2023-05-11T03:18:53;97976.59;;;16.01;59.78
550;BME280;20066;48.764;9.176;2023-05-11T03:21:23;97975.56;;;15.95;60.13
550;BME280;20066;48.764;9.176;2023-05-11T03:23:52;97976.84;;;15.91;60.54
550;BME280;20066;48.764;9.176;2023-05-11T03:26:22;97975.91;;;15.65;60.35
550;BME280;20066;48.764;9.176;2023-05-11T03:28:51;97971.75;;;15.60;61.47
550;BME280;20066;48.764;9.176;2023-05-11T03:31:19;97973.50;;;15.51;61.30
550;BME280;20066;48.764;9.176;2023-05-11T03:33:47;97968.63;;;15.06;62.96
550;BME280;20066;48.764;9.176;2023-05-11T03:36:16;97966.00;;;15.38;61.86
550;BME280;20066;48.764;9.176;2023-05-11T03:38:46;97971.31;;;15.94;60.31
550;BME280;20066;48.764;9.176;2023-05-11T03:41:16;97971.47;;;15.55;62.11
550;BME280;20066;48.764;9.176;2023-05-11T03:43:47;97970.31;;;15.72;60.25
550;BME280;20066;48.764;9.176;2023-05-11T03:46:19;97964.06;;;15.39;62.04
550;BME280;20066;48.764;9.176;2023-05-11T03:48:47;97972.34;;;16.00;59.70
550;BME280;20066;48.764;9.176;2023-05-11T03:51:16;97969.38;;;16.11;58.93
550;BME280;20066;48.764;9.176;2023-05-11T03:53:46;97968.38;;;15.89;59.92
550;BME280;20066;48.764;9.176;2023-05-11T03:56:15;97968.47;;;16.17;58.85
550;BME280;20066;48.764;9.176;2023-05-11T03:58:43;97958.13;;;16.12;58.22
550;BME280;20066;48.764;9.176;2023-05-11T04:01:12;97957.16;;;15.54;59.45
550;BME280;20066;48.764;9.176;2023-05-11T04:03:46;97956.09;;;15.32;60.26
550;BME280;20066;48.764;9.176;2023-05-11T04:06:16;97957.63;;;15.33;61.90
550;BME280;20066;48.764;9.176;2023-05-11T04:08:45;97956.91;;;15.65;60.70
550;BME280;20066;48.764;9.176;2023-05-11T04:11:13;97959.47;;;16.04;58.97
550;BME280;20066;48.764;9.176;2023-05-11T04:13:41;97961.00;;;16.05;59.19
550;BME280;20066;48.764;9.176;2023-05-11T04:16:08;97957.59;;;15.17;59.91
550;BME280;20066;48.764;9.176;2023-05-11T04:18:36;97961.34;;;14.20;63.37
550;BME280;20066;48.764;9.176;2023-05-11T04:21:04;97961.97;;;13.81;65.32
550;BME280;20066;48.764;9.176;2023-05-11T04:23:32;97960.25;;;14.38;64.51
550;BME280;20066;48.764;9.176;2023-05-11T04:26:01;97957.09;;;14.19;64.15
550;BME280;20066;48.764;9.176;2023-05-11T04:28:29;97957.34;;;14.28;64.95
550;BME280;20066;48.764;9.176;2023-05-11T04:30:57;97959.34;;;14.67;63.27
550;BME280;20066;48.764;9.176;2023-05-11T04:33:24;97966.94;;;14.92;61.95
550;BME280;20066;48.764;9.176;2023-05-11T04:35:53;97953.84;;;14.51;63.24
550;BME280;20066;48.764;9.176;2023-05-11T04:38:21;97968.09;;;14.32;63.78
550;BME280;20066;48.764;9.176;2023-05-11T04:40:49;97960.69;;;14.36;63.61
550;BME280;20066;48.764;9.176;2023-05-11T04:43:21;97963.72;;;14.38;62.70
550;BME280;20066;48.764;9.176;2023-05-11T04:45:51;97965.84;;;13.80;65.63
550;BME280;20066;48.764;9.176;2023-05-11T04:48:24;97968.34;;;14.18;64.64
550;BME280;20066;48.764;9.176;2023-05-11T04:50:53;97964.81;;;14.21;65.07
550;BME280;20066;48.764;9.176;2023-05-11T04:53:22;97961.56;;;15.12;62.48
550;BME280;20066;48.764;9.176;2023-05-11T04:55:54;97966.38;;;14.42;63.52
550;BME280;20066;48.764;9.176;2023-05-11T04:58:24;97967.06;;;13.99;64.82
550;BME280;20066;48.764;9.176;2023-05-11T05:00:53;97965.63;;;14.18;64.54
550;BME280;20066;48.764;9.176;2023-05-11T05:03:22;97969.09;;;14.61;63.22
550;BME280;20066;48.764;9.176;2023-05-11T05:05:50;97970.50;;;14.70;62.54
550;BME280;20066;48.764;9.176;2023-05-11T05:08:20;97967.81;;;14.89;61.33
550;BME280;20066;48.764;9.176;2023-05-11T05:10:49;97969.09;;;14.18;63.90
550;BME280;20066;48.764;9.176;2023-05-11T05:13:21;97974.34;;;14.06;65.64
550;BME280;20066;48.764;9.176;2023-05-11T05:15:54;97969.34;;;14.01;64.73
550;BME280;20066;48.764;9.176;2023-05-11T05:18:23;97977.31;;;14.78;62.29
550;BME280;20066;48.764;9.176;2023-05-11T05:20:54;97969.34;;;14.04;64.57
550;BME280;20066;48.764;9.176;2023-05-11T05:23:22;97975.84;;;14.30;64.15
550;BME280;20066;48.764;9.176;2023-05-11T05:25:54;97971.34;;;15.06;62.12
550;BME280;20066;48.764;9.176;2023-05-11T05:28:23;97981.88;;;15.00;61.98
550;BME280;20066;48.764;9.176;2023-05-11T05:30:55;97964.50;;;15.54;59.86
550;BME280;20066;48.764;9.176;2023-05-11T05:33:28;97980.50;;;15.84;58.60
550;BME280;20066;48.764;9.176;2023-05-11T05:35:57;97983.19;;;16.00;57.37
550;BME280;20066;48.764;9.176;2023-05-11T05:38:30;97979.13;;;16.08;58.65
550;BME280;20066;48.764;9.176;2023-05-11T05:40:59;97987.69;;;16.23;58.18
550;BME280;20066;48.764;9.176;2023-05-11T05:43:45;97985.91;;;16.00;58.37
550;BME280;20066;48.764;9.176;2023-05-11T05:46:22;97978.38;;;15.75;59.50
550;BME280;20066;48.764;9.176;2023-05-11T05:48:50;97980.16;;;15.82;59.55
550;BME280;20066;48.764;9.176;2023-05-11T05:51:21;97981.16;;;15.72;59.15
550;BME280;20066;48.764;9.176;2023-05-11T05:53:51;97986.19;;;15.90;58.57
550;BME280;20066;48.764;9.176;2023-05-11T05:56:22;97992.28;;;16.10;57.89
550;BME280;20066;48.764;9.176;2023-05-11T05:58:50;97991.09;;;15.95;59.09
550;BME280;20066;48.764;9.176;2023-05-11T06:01:19;97988.13;;;16.05;57.85
550;BME280;20066;48.764;9.176;2023-05-11T06:03:50;97988.31;;;15.98;58.31
550;BME280;20066;48.764;9.176;2023-05-11T06:06:21;97991.22;;;15.19;61.40
550;BME280;20066;48.764;9.176;2023-05-11T06:08:51;97988.47;;;16.07;58.76
550;BME280;20066;48.764;9.176;2023-05-11T06:11:22;98000.25;;;16.17;58.28
550;BME280;20066;48.764;9.176;2023-05-11T06:13:50;98004.16;;;16.32;56.00
550;BME280;20066;48.764;9.176;2023-05-11T06:16:19;98005.28;;;16.18;57.03
550;BME280;20066;48.764;9.176;2023-05-11T06:18:52;97991.16;;;15.75;59.20
550;BME280;20066;48.764;9.176;2023-05-11T06:21:22;98002.13;;;16.20;57.08
550;BME280;20066;48.764;9.176;2023-05-11T06:23:54;98000.56;;;16.51;55.94
550;BME280;20066;48.764;9.176;2023-05-11T06:26:22;98000.16;;;16.04;57.75
550;BME280;20066;48.764;9.176;2023-05-11T06:28:55;98005.53;;;16.24;57.32
550;BME280;20066;48.764;9.176;2023-05-11T06:31:28;98000.59;;;16.03;57.52
550;BME280;20066;48.764;9.176;2023-05-11T06:33:58;97996.59;;;16.24;57.44
550;BME280;20066;48.764;9.176;2023-05-11T06:36:26;97994.28;;;15.57;58.93
550;BME280;20066;48.764;9.176;2023-05-11T06:38:53;97994.03;;;15.68;58.50
550;BME280;20066;48.764;9.176;2023-05-11T06:41:21;97998.34;;;15.65;58.85
550;BME280;20066;48.764;9.176;2023-05-11T06:43:50;98002.34;;;15.93;58.97
550;BME280;20066;48.764;9.176;2023-05-11T06:46:18;98000.06;;;16.08;58.44
550;BME280;20066;48.764;9.176;2023-05-11T06:48:50;98002.13;;;16.36;56.99
550;BME280;20066;48.764;9.176;2023-05-11T06:51:21;98001.28;;;16.07;57.23
550;BME280;20066;48.764;9.176;2023-05-11T06:53:53;98006.78;;;16.36;57.30
550;BME280;20066;48.764;9.176;2023-05-11T06:56:25;97994.31;;;15.90;59.28
550;BME280;20066;48.764;9.176;2023-05-11T06:58:55;98007.38;;;16.43;57.95
550;BME280;20066;48.764;9.176;2023-05-11T07:01:25;98000.91;;;15.89;57.94
550;BME280;20066;48.764;9.176;2023-05-11T07:03:53;97996.94;;;15.93;57.78
550;BME280;20066;48.764;9.176;2023-05-11T07:06:24;97998.97;;;15.89;57.98
550;BME280;20066;48.764;9.176;2023-05-11T07:08:55;98003.22;;;15.90;58.36
550;BME280;20066;48.764;9.176;2023-05-11T07:11:29;98010.47;;;16.13;58.01
550;BME280;20066;48.764;9.176;2023-05-11T07:14:02;98003.13;;;14.62;62.69
550;BME280;20066;48.764;9.176;2023-05-11T07:16:30;98003.00;;;15.65;61.73
550;BME280;20066;48.764;9.176;2023-05-11T07:18:58;98010.53;;;15.57;60.75
550;BME280;20066;48.764;9.176;2023-05-11T07:21:30;98008.97;;;16.08;61.22
550;BME280;20066;48.764;9.176;2023-05-11T07:24:00;97997.38;;;15.75;60.29
550;BME280;20066;48.764;9.176;2023-05-11T07:26:43;98008.13;;;14.84;64.89
550;BME280;20066;48.764;9.176;2023-05-11T07:29:11;98001.06;;;15.29;65.07
550;BME280;20066;48.764;9.176;2023-05-11T07:31:40;98011.16;;;15.65;62.56
550;BME280;20066;48.764;9.176;2023-05-11T07:34:18;98009.47;;;16.52;59.93
550;BME280;20066;48.764;9.176;2023-05-11T07:36:48;98014.13;;;16.68;59.59
550;BME280;20066;48.764;9.176;2023-05-11T07:39:20;98019.47;;;17.00;59.59
550;BME280;20066;48.764;9.176;2023-05-11T07:41:51;98013.66;;;15.92;58.74
550;BME280;20066;48.764;9.176;2023-05-11T07:44:25;98012.13;;;15.19;62.71
550;BME280;20066;48.764;9.176;2023-05-11T07:46:54;98010.47;;;15.77;62.79
550;BME280;20066;48.764;9.176;2023-05-11T07:49:24;98012.75;;;16.31;61.89
550;BME280;20066;48.764;9.176;2023-05-11T07:52:13;98014.09;;;16.84;60.39
550;BME280;20066;48.764;9.176;2023-05-11T07:54:42;98019.59;;;16.80;59.80
550;BME280;20066;48.764;9.176;2023-05-11T08:01:11;98017.56;;;16.84;57.49
550;BME280;20066;48.764;9.176;2023-05-11T08:03:42;98017.03;;;16.89;58.22
550;BME280;20066;48.764;9.176;2023-05-11T08:06:10;98011.69;;;16.57;58.59
550;BME280;20066;48.764;9.176;2023-05-11T08:08:44;98008.13;;;16.89;58.71
550;BME280;20066;48.764;9.176;2023-05-11T08:11:13;98007.56;;;16.94;59.91
550;BME280;20066;48.764;9.176;2023-05-11T08:13:41;98013.47;;;16.92;58.98
550;BME280;20066;48.764;9.176;2023-05-11T08:16:09;98014.75;;;17.01;59.98
550;BME280;20066;48.764;9.176;2023-05-11T08:18:41;98011.72;;;16.70;59.16
550;BME280;20066;48.764;9.176;2023-05-11T08:21:13;98016.25;;;17.18;58.39
550;BME280;20066;48.764;9.176;2023-05-11T08:23:41;98012.88;;;16.40;60.23
550;BME280;20066;48.764;9.176;2023-05-11T08:26:14;98017.00;;;16.77;60.00
550;BME280;20066;48.764;9.176;2023-05-11T08:28:42;98016.19;;;15.47;63.36
550;BME280;20066;48.764;9.176;2023-05-11T08:31:13;98007.78;;;16.58;60.16
550;BME280;20066;48.764;9.176;2023-05-11T08:33:44;98015.59;;;16.24;60.69
550;BME280;20066;48.764;9.176;2023-05-11T08:36:15;98012.75;;;15.26;64.72
550;BME280;20066;48.764;9.176;2023-05-11T08:38:47;98012.03;;;15.42;64.22
550;BME280;20066;48.764;9.176;2023-05-11T08:41:17;98015.00;;;16.00;63.21
550;BME280;20066;48.764;9.176;2023-05-11T08:43:51;98015.56;;;14.80;67.26
550;BME280;20066;48.764;9.176;2023-05-11T08:46:28;98002.25;;;14.89;66.67
550;BME280;20066;48.764;9.176;2023-05-11T08:48:58;98011.38;;;14.32;67.77
550;BME280;20066;48.764;9.176;2023-05-11T08:51:28;98011.38;;;15.18;68.68
550;BME280;20066;48.764;9.176;2023-05-11T08:53:56;98011.97;;;15.26;68.18
550;BME280;20066;48.764;9.176;2023-05-11T08:56:40;98019.25;;;16.49;60.42
550;BME280;20066;48.764;9.176;2023-05-11T08:59:10;98013.63;;;16.85;59.91
550;BME280;20066;48.764;9.176;2023-05-11T09:21:11;98011.97;;;15.46;63.81
550;BME280;20066;48.764;9.176;2023-05-11T09:23:39;98010.06;;;15.78;63.61
550;BME280;20066;48.764;9.176;2023-05-11T09:26:12;98014.56;;;15.85;62.88
550;BME280;20066;48.764;9.176;2023-05-11T09:28:47;98008.16;;;15.03;64.35
550;BME280;20066;48.764;9.176;2023-05-11T09:31:36;98009.56;;;15.84;64.13
550;BME280;20066;48.764;9.176;2023-05-11T09:34:12;98006.03;;;15.51;64.31
550;BME280;20066;48.764;9.176;2023-05-11T09:36:43;98004.41;;;15.37;64.45
550;BME280;20066;48.764;9.176;2023-05-11T09:39:12;98004.47;;;15.33;63.65
550;BME280;20066;48.764;9.176;2023-05-11T09:42:12;98005.25;;;15.14;66.38
550;BME280;20066;48.764;9.176;2023-05-11T09:44:40;98010.31;;;15.68;64.64
550;BME280;20066;48.764;9.176;2023-05-11T09:47:12;98001.22;;;14.83;64.34
550;BME280;20066;48.764;9.176;2023-05-11T09:49:41;98011.69;;;15.40;64.87
550;BME280;20066;48.764;9.176;2023-05-11T09:52:11;98007.97;;;16.02;61.86
550;BME280;20066;48.764;9.176;2023-05-11T09:54:41;98004.56;;;15.30;62.26
550;BME280;20066;48.764;9.176;2023-05-11T09:57:24;98007.00;;;15.93;61.69
550;BME280;20066;48.764;9.176;2023-05-11T09:59:53;98011.31;;;15.58;62.37
550;BME280;20066;48.764;9.176;2023-05-11T10:02:23;98014.25;;;16.15;62.37
550;BME280;20066;48.764;9.176;2023-05-11T10:04:53;98010.09;;;15.23;63.76
550;BME280;20066;48.764;9.176;2023-05-11T10:07:27;98016.34;;;16.08;62.20
550;BME280;20066;48.764;9.176;2023-05-11T10:09:56;98006.63;;;14.83;67.55
550;BME280;20066;48.764;9.176;2023-05-11T10:12:25;98008.44;;;14.46;67.37
550;BME280;20066;48.764;9.176;2023-05-11T10:14:55;98013.81;;;15.13;65.20
550;BME280;20066;48.764;9.176;2023-05-11T10:17:25;98008.97;;;15.40;62.39
550;BME280;20066;48.764;9.176;2023-05-11T10:19:54;98017.22;;;16.53;60.14
550;BME280;20066;48.764;9.176;2023-05-11T10:22:23;98013.38;;;16.02;60.98
550;BME280;20066;48.764;9.176;2023-05-11T10:24:53;98007.03;;;15.40;64.34
550;BME280;20066;48.764;9.176;2023-05-11T10:27:23;98007.44;;;14.60;67.53
550;BME280;20066;48.764;9.176;2023-05-11T10:29:51;98007.34;;;15.78;63.51
550;BME280;20066;48.764;9.176;2023-05-11T10:32:19;98000.78;;;15.24;65.33
550;BME280;20066;48.764;9.176;2023-05-11T10:34:48;97997.28;;;14.64;65.66
550;BME280;20066;48.764;9.176;2023-05-11T10:37:17;97999.50;;;14.69;67.09
550;BME280;20066;48.764;9.176;2023-05-11T10:39:47;98005.25;;;14.51;66.73
550;BME280;20066;48.764;9.176;2023-05-11T10:42:31;97997.22;;;15.07;63.82
550;BME280;20066;48.764;9.176;2023-05-11T10:45:15;97997.78;;;15.38;63.70
550;BME280;20066;48.764;9.176;2023-05-11T10:48:19;97994.50;;;15.07;64.12
550;BME280;20066;48.764;9.176;2023-05-11T10:51:03;97991.81;;;14.87;62.55
550;BME280;20066;48.764;9.176;2023-05-11T10:53:42;97992.03;;;16.21;60.27
550;BME280;20066;48.764;9.176;2023-05-11T10:56:36;97988.72;;;15.80;61.21
550;BME280;20066;48.764;9.176;2023-05-11T10:59:33;97991.41;;;15.09;62.65
550;BME280;20066;48.764;9.176;2023-05-11T11:02:07;97988.84;;;15.01;61.31
550;BME280;20066;48.764;9.176;2023-05-11T11:04:43;97991.06;;;15.78;58.97
550;BME280;20066;48.764;9.176;2023-05-11T11:07:11;97989.56;;;15.94;59.00
550;BME280;20066;48.764;9.176;2023-05-11T11:09:53;97986.63;;;15.36;61.96
550;BME280;20066;48.764;9.176;2023-05-11T11:12:22;97979.78;;;15.64;62.43
550;BME280;20066;48.764;9.176;2023-05-11T11:14:55;97990.59;;;15.84;60.84
550;BME280;20066;48.764;9.176;2023-05-11T11:17:26;97983.78;;;15.59;63.08
550;BME280;20066;48.764;9.176;2023-05-11T11:19:56;97979.88;;;16.09;61.13
550;BME280;20066;48.764;9.176;2023-05-11T11:22:43;97986.34;;;14.91;64.95
550;BME280;20066;48.764;9.176;2023-05-11T11:25:14;97987.75;;;15.19;63.98
550;BME280;20066;48.764;9.176;2023-05-11T11:27:56;97983.59;;;15.50;63.06
550;BME280;20066;48.764;9.176;2023-05-11T11:30:27;97984.19;;;14.82;65.16
550;BME280;20066;48.764;9.176;2023-05-11T11:33:29;97973.84;;;15.53;63.40
550;BME280;20066;48.764;9.176;2023-05-11T11:35:58;97990.59;;;16.32;61.13
550;BME280;20066;48.764;9.176;2023-05-11T11:38:26;97980.00;;;16.22;61.52
550;BME280;20066;48.764;9.176;2023-05-11T11:40:55;97984.44;;;16.61;59.99
550;BME280;20066;48.764;9.176;2023-05-11T11:43:23;97983.06;;;16.69;60.03
550;BME280;20066;48.764;9.176;2023-05-11T11:45:54;97975.50;;;15.99;59.34
550;BME280;20066;48.764;9.176;2023-05-11T11:48:28;97988.22;;;16.18;60.43
550;BME280;20066;48.764;9.176;2023-05-11T11:51:02;97988.09;;;15.73;61.20
550;BME280;20066;48.764;9.176;2023-05-11T11:54:03;97985.13;;;16.48;57.91
550;BME280;20066;48.764;9.176;2023-05-11T11:56:41;97992.97;;;15.98;59.53
550;BME280;20066;48.764;9.176;2023-05-11T11:59:11;97982.44;;;16.32;58.58
550;BME280;20066;48.764;9.176;2023-05-11T12:01:43;97985.13;;;16.77;56.85
550;BME280;20066;48.764;9.176;2023-05-11T12:04:35;97982.75;;;15.53;56.32
550;BME280;20066;48.764;9.176;2023-05-11T12:07:07;97987.16;;;16.61;54.96
550;BME280;20066;48.764;9.176;2023-05-11T12:09:37;97982.31;;;16.81;53.29
550;BME280;20066;48.764;9.176;2023-05-11T12:12:07;97973.19;;;16.75;53.80
550;BME280;20066;48.764;9.176;2023-05-11T12:14:35;97967.53;;;15.92;56.54
550;BME280;20066;48.764;9.176;2023-05-11T12:17:06;97975.94;;;16.87;55.65
550;BME280;20066;48.764;9.176;2023-05-11T12:19:41;97972.41;;;15.48;58.23
550;BME280;20066;48.764;9.176;2023-05-11T12:22:09;97974.47;;;15.76;56.09
550;BME280;20066;48.764;9.176;2023-05-11T12:24:40;97972.50;;;15.77;55.90
550;BME280;20066;48.764;9.176;2023-05-11T12:27:07;97974.47;;;15.93;56.66
550;BME280;20066;48.764;9.176;2023-05-11T12:29:35;97985.56;;;16.47;54.76
550;BME280;20066;48.764;9.176;2023-05-11T12:32:10;97972.38;;;17.03;51.23
550;BME280;20066;48.764;9.176;2023-05-11T12:34:38;97971.69;;;16.12;55.31
550;BME280;20066;48.764;9.176;2023-05-11T12:37:06;97964.88;;;15.56;56.83
550;BME280;20066;48.764;9.176;2023-05-11T12:39:34;97966.72;;;16.40;56.33
550;BME280;20066;48.764;9.176;2023-05-11T12:42:03;97963.03;;;17.58;53.50
550;BME280;20066;48.764;9.176;2023-05-11T12:44:31;97959.09;;;17.34;53.95
550;BME280;20066;48.764;9.176;2023-05-11T12:46:59;97969.41;;;16.56;56.76
550;BME280;20066;48.764;9.176;2023-05-11T12:49:28;97960.13;;;16.25;58.55
550;BME280;20066;48.764;9.176;2023-05-11T12:52:00;97959.06;;;16.22;57.05
550;BME280;20066;48.764;9.176;2023-05-11T12:54:31;97963.94;;;16.11;59.51
550;BME280;20066;48.764;9.176;2023-05-11T12:57:00;97956.41;;;16.35;58.30
550;BME280;20066;48.764;9.176;2023-05-11T12:59:30;97951.22;;;16.24;58.48
550;BME280;20066;48.764;9.176;2023-05-11T13:02:09;97947.19;;;15.84;57.13
550;BME280;20066;48.764;9.176;2023-05-11T13:04:40;97947.69;;;16.27;56.35
550;BME280;20066;48.764;9.176;2023-05-11T13:07:09;97945.06;;;15.91;55.98
550;BME280;20066;48.764;9.176;2023-05-11T13:09:37;97938.94;;;15.55;58.07
550;BME280;20066;48.764;9.176;2023-05-11T13:12:14;97936.25;;;15.71;57.46
550;BME280;20066;48.764;9.176;2023-05-11T13:14:46;97936.91;;;16.81;55.86
550;BME280;20066;48.764;9.176;2023-05-11T13:17:27;97933.34;;;16.84;54.61
550;BME280;20066;48.764;9.176;2023-05-11T13:20:13;97934.81;;;16.73;54.08
550;BME280;20066;48.764;9.176;2023-05-11T13:22:42;97926.81;;;15.43;56.23
550;BME280;20066;48.764;9.176;2023-05-11T13:25:10;97928.66;;;15.10;55.48
550;BME280;20066;48.764;9.176;2023-05-11T13:27:38;97927.69;;;16.21;54.41
550;BME280;20066;48.764;9.176;2023-05-11T13:30:07;97916.69;;;15.11;56.50
550;BME280;20066;48.764;9.176;2023-05-11T13:32:34;97923.19;;;14.94;58.37
550;BME280;20066;48.764;9.176;2023-05-11T13:35:05;97920.13;;;15.80;57.86
550;BME280;20066;48.764;9.176;2023-05-11T13:37:33;97919.72;;;17.51;52.63
550;BME280;20066;48.764;9.176;2023-05-11T13:40:01;97914.28;;;17.13;50.42
550;BME280;20066;48.764;9.176;2023-05-11T13:42:29;97928.28;;;15.96;52.91
550;BME280;20066;48.764;9.176;2023-05-11T13:44:57;97917.75;;;17.26;50.42
550;BME280;20066;48.764;9.176;2023-05-11T13:47:25;97909.22;;;18.57;47.21
550;BME280;20066;48.764;9.176;2023-05-11T13:49:53;97904.63;;;17.38;49.56
550;BME280;20066;48.764;9.176;2023-05-11T13:52:22;97900.78;;;18.42;48.03
550;BME280;20066;48.764;9.176;2023-05-11T13:54:50;97900.38;;;18.09;50.13
550;BME280;20066;48.764;9.176;2023-05-11T13:57:18;97897.41;;;17.56;49.90
550;BME280;20066;48.764;9.176;2023-05-11T13:59:46;97898.97;;;16.78;51.27
550;BME280;20066;48.764;9.176;2023-05-11T14:02:14;97894.56;;;16.55;52.77
550;BME280;20066;48.764;9.176;2023-05-11T14:04:42;97907.91;;;16.21;52.13
550;BME280;20066;48.764;9.176;2023-05-11T14:07:10;97897.97;;;17.13;47.36